sensor_id;sensor_type;location;lat;lon;timestamp;P1;durP1;ratioP1;P2;durP2;ratioP2
2486;SDS011;1254;49.144;8.212;2024-01-10T00:01:12;15.52;;;13.57;;
2486;SDS011;1254;49.144;8.212;2024-01-10T00:03:40;22.65;;;14.63;;
2486;SDS011;1254;49.144;8.212;2024-01-10T00:06:08;16.67;;;14.00;;
2486;SDS011;1254;49.144;8.212;2024-01-10T00:08:37;20.20;;;14.32;;
2486;SDS011;1254;49.144;8.212;2024-01-10T00:11:06;16.00;;;12.70;;
2486;SDS011;1254;49.144;8.212;2024-01-10T00:13:35;21.52;;;14.50;;
2486;SDS011;1254;49.144;8.212;2024-01-10T00:16:04;16.85;;;13.73;;
2486;SDS011;1254;49.144;8.212;2024-01-10T00:18:32;17.60;;;14.32;;
2486;SDS011;1254;49.144;8.212;2024-01-10T00:21:00;18.27;;;13.32;;
2486;SDS011;1254;49.144;8.212;2024-01-10T00:23:29;16.15;;;13.88;;
2486;SDS011;1254;49.144;8.212;2024-01-10T00:25:57;16.45;;;13.88;;
2486;SDS011;1254;49.144;8.212;2024-01-10T00:28:25;18.05;;;13.70;;
2486;SDS011;1254;49.144;8.212;2024-01-10T00:30:55;16.23;;;14.60;;
2486;SDS011;1254;49.144;8.212;2024-01-10T00:33:23;23.13;;;14.40;;
2486;SDS011;1254;49.144;8.212;2024-01-10T00:35:51;17.70;;;13.50;;
2486;SDS011;1254;49.144;8.212;2024-01-10T00:38:19;18.67;;;14.88;;
2486;SDS011;1254;49.144;8.212;2024-01-10T00:40:47;19.30;;;15.32;;
2486;SDS011;1254;49.144;8.212;2024-01-10T00:43:16;15.43;;;13.65;;
2486;SDS011;1254;49.144;8.212;2024-01-10T00:45:44;18.67;;;14.45;;
2486;SDS011;1254;49.144;8.212;2024-01-10T00:48:13;20.33;;;14.65;;
2486;SDS011;1254;49.144;8.212;2024-01-10T00:50:43;18.38;;;15.85;;
2486;SDS011;1254;49.144;8.212;2024-01-10T00:53:11;18.00;;;15.05;;
2486;SDS011;1254;49.144;8.212;2024-01-10T00:55:40;15.63;;;14.10;;
2486;SDS011;1254;49.144;8.212;2024-01-10T00:58:08;18.90;;;14.15;;
2486;SDS011;1254;49.144;8.212;2024-01-10T01:00:36;15.75;;;14.23;;
2486;SDS011;1254;49.144;8.212;2024-01-10T01:03:05;17.45;;;13.95;;
2486;SDS011;1254;49.144;8.212;2024-01-10T01:05:35;20.30;;;14.88;;
2486;SDS011;1254;49.144;8.212;2024-01-10T01:08:04;16.45;;;14.77;;
2486;SDS011;1254;49.144;8.212;2024-01-10T01:10:33;17.60;;;14.35;;
2486;SDS011;1254;49.144;8.212;2024-01-10T01:13:01;18.23;;;14.13;;
2486;SDS011;1254;49.144;8.212;2024-01-10T01:15:29;14.95;;;13.43;;
2486;SDS011;1254;49.144;8.212;2024-01-10T01:17:57;16.95;;;13.55;;
2486;SDS011;1254;49.144;8.212;2024-01-10T01:20:26;17.75;;;14.57;;
2486;SDS011;1254;49.144;8.212;2024-01-10T01:22:55;19.25;;;15.05;;
2486;SDS011;1254;49.144;8.212;2024-01-10T01:25:24;22.63;;;16.50;;
2486;SDS011;1254;49.144;8.212;2024-01-10T01:27:52;16.45;;;13.85;;
2486;SDS011;1254;49.144;8.212;2024-01-10T01:30:20;20.02;;;15.88;;
2486;SDS011;1254;49.144;8.212;2024-01-10T01:32:49;19.70;;;15.80;;
2486;SDS011;1254;49.144;8.212;2024-01-10T01:35:17;16.40;;;13.85;;
2486;SDS011;1254;49.144;8.212;2024-01-10T01:37:47;19.77;;;14.82;;
2486;SDS011;1254;49.144;8.212;2024-01-10T01:40:17;18.08;;;15.13;;
2486;SDS011;1254;49.144;8.212;2024-01-10T01:42:45;18.77;;;14.55;;
2486;SDS011;1254;49.144;8.212;2024-01-10T01:45:14;19.80;;;15.88;;
2486;SDS011;1254;49.144;8.212;2024-01-10T01:47:42;27.02;;;15.20;;
2486;SDS011;1254;49.144;8.212;2024-01-10T01:50:10;24.83;;;16.83;;
2486;SDS011;1254;49.144;8.212;2024-01-10T01:52:38;19.85;;;14.23;;
2486;SDS011;1254;49.144;8.212;2024-01-10T01:55:07;17.20;;;15.20;;
2486;SDS011;1254;49.144;8.212;2024-01-10T01:57:37;18.08;;;15.07;;
2486;SDS011;1254;49.144;8.212;2024-01-10T02:00:07;19.73;;;15.50;;
2486;SDS011;1254;49.144;8.212;2024-01-10T02:02:38;29.25;;;14.85;;
2486;SDS011;1254;49.144;8.212;2024-01-10T02:05:07;19.30;;;14.90;;
2486;SDS011;1254;49.144;8.212;2024-01-10T02:07:36;21.08;;;16.77;;
2486;SDS011;1254;49.144;8.212;2024-01-10T02:10:04;17.70;;;14.70;;
2486;SDS011;1254;49.144;8.212;2024-01-10T02:12:33;19.75;;;15.88;;
2486;SDS011;1254;49.144;8.212;2024-01-10T02:15:02;23.70;;;15.50;;
2486;SDS011;1254;49.144;8.212;2024-01-10T02:17:31;19.13;;;14.57;;
2486;SDS011;1254;49.144;8.212;2024-01-10T02:20:07;16.10;;;14.40;;
2486;SDS011;1254;49.144;8.212;2024-01-10T02:22:35;18.92;;;14.73;;
2486;SDS011;1254;49.144;8.212;2024-01-10T02:25:05;26.90;;;18.83;;
2486;SDS011;1254;49.144;8.212;2024-01-10T02:27:34;23.92;;;17.38;;
2486;SDS011;1254;49.144;8.212;2024-01-10T02:30:04;19.63;;;15.15;;
2486;SDS011;1254;49.144;8.212;2024-01-10T02:32:33;18.33;;;15.90;;
2486;SDS011;1254;49.144;8.212;2024-01-10T02:35:01;20.73;;;15.60;;
2486;SDS011;1254;49.144;8.212;2024-01-10T02:37:29;21.73;;;15.30;;
2486;SDS011;1254;49.144;8.212;2024-01-10T02:39:57;21.13;;;16.35;;
2486;SDS011;1254;49.144;8.212;2024-01-10T02:42:27;19.42;;;15.73;;
2486;SDS011;1254;49.144;8.212;2024-01-10T02:44:56;17.80;;;15.45;;
2486;SDS011;1254;49.144;8.212;2024-01-10T02:47:24;20.85;;;17.30;;
2486;SDS011;1254;49.144;8.212;2024-01-10T02:49:52;27.63;;;17.08;;
2486;SDS011;1254;49.144;8.212;2024-01-10T02:52:20;20.45;;;16.35;;
2486;SDS011;1254;49.144;8.212;2024-01-10T02:54:49;23.20;;;16.77;;
2486;SDS011;1254;49.144;8.212;2024-01-10T02:57:17;20.63;;;15.45;;
2486;SDS011;1254;49.144;8.212;2024-01-10T02:59:46;19.95;;;15.50;;
2486;SDS011;1254;49.144;8.212;2024-01-10T03:02:15;22.15;;;16.17;;
2486;SDS011;1254;49.144;8.212;2024-01-10T03:04:43;24.38;;;17.42;;
2486;SDS011;1254;49.144;8.212;2024-01-10T03:07:11;29.48;;;17.50;;
2486;SDS011;1254;49.144;8.212;2024-01-10T03:09:39;24.80;;;16.42;;
2486;SDS011;1254;49.144;8.212;2024-01-10T03:12:09;20.90;;;17.42;;
2486;SDS011;1254;49.144;8.212;2024-01-10T03:14:38;17.52;;;14.40;;
2486;SDS011;1254;49.144;8.212;2024-01-10T03:17:08;23.60;;;16.05;;
2486;SDS011;1254;49.144;8.212;2024-01-10T03:19:36;16.02;;;14.13;;
2486;SDS011;1254;49.144;8.212;2024-01-10T03:22:08;25.15;;;14.85;;
2486;SDS011;1254;49.144;8.212;2024-01-10T03:24:37;26.75;;;17.98;;
2486;SDS011;1254;49.144;8.212;2024-01-10T03:27:05;26.08;;;17.92;;
2486;SDS011;1254;49.144;8.212;2024-01-10T03:29:33;24.10;;;16.95;;
2486;SDS011;1254;49.144;8.212;2024-01-10T03:32:02;25.30;;;17.33;;
2486;SDS011;1254;49.144;8.212;2024-01-10T03:34:31;22.00;;;17.73;;
2486;SDS011;1254;49.144;8.212;2024-01-10T03:37:00;22.45;;;16.10;;
2486;SDS011;1254;49.144;8.212;2024-01-10T03:39:28;34.70;;;14.82;;
2486;SDS011;1254;49.144;8.212;2024-01-10T03:41:56;19.83;;;16.38;;
2486;SDS011;1254;49.144;8.212;2024-01-10T03:44:26;23.98;;;16.23;;
2486;SDS011;1254;49.144;8.212;2024-01-10T03:46:54;18.95;;;15.82;;
2486;SDS011;1254;49.144;8.212;2024-01-10T03:49:23;21.40;;;15.90;;
2486;SDS011;1254;49.144;8.212;2024-01-10T03:51:53;23.67;;;15.77;;
2486;SDS011;1254;49.144;8.212;2024-01-10T03:54:21;19.70;;;16.88;;
2486;SDS011;1254;49.144;8.212;2024-01-10T03:56:49;21.98;;;16.00;;
2486;SDS011;1254;49.144;8.212;2024-01-10T03:59:17;24.35;;;17.85;;
2486;SDS011;1254;49.144;8.212;2024-01-10T04:01:46;26.20;;;16.27;;
2486;SDS011;1254;49.144;8.212;2024-01-10T04:04:14;18.75;;;15.80;;
2486;SDS011;1254;49.144;8.212;2024-01-10T04:06:42;24.08;;;16.17;;
2486;SDS011;1254;49.144;8.212;2024-01-10T04:09:12;25.30;;;17.30;;
2486;SDS011;1254;49.144;8.212;2024-01-10T04:11:40;18.23;;;14.95;;
2486;SDS011;1254;49.144;8.212;2024-01-10T04:14:08;22.02;;;15.75;;
2486;SDS011;1254;49.144;8.212;2024-01-10T04:16:36;27.55;;;17.27;;
2486;SDS011;1254;49.144;8.212;2024-01-10T04:19:05;20.70;;;14.93;;
2486;SDS011;1254;49.144;8.212;2024-01-10T04:21:33;27.42;;;17.17;;
2486;SDS011;1254;49.144;8.212;2024-01-10T04:24:01;26.67;;;16.20;;
2486;SDS011;1254;49.144;8.212;2024-01-10T04:26:31;23.80;;;18.65;;
2486;SDS011;1254;49.144;8.212;2024-01-10T04:28:59;25.20;;;18.70;;
2486;SDS011;1254;49.144;8.212;2024-01-10T04:31:27;22.10;;;16.20;;
2486;SDS011;1254;49.144;8.212;2024-01-10T04:33:55;27.88;;;18.67;;
2486;SDS011;1254;49.144;8.212;2024-01-10T04:36:23;22.08;;;15.85;;
2486;SDS011;1254;49.144;8.212;2024-01-10T04:38:52;31.50;;;18.70;;
2486;SDS011;1254;49.144;8.212;2024-01-10T04:41:20;22.67;;;16.17;;
2486;SDS011;1254;49.144;8.212;2024-01-10T04:43:50;30.98;;;17.67;;
2486;SDS011;1254;49.144;8.212;2024-01-10T04:46:18;26.35;;;17.20;;
2486;SDS011;1254;49.144;8.212;2024-01-10T04:48:47;19.85;;;14.70;;
2486;SDS011;1254;49.144;8.212;2024-01-10T04:51:15;24.60;;;16.60;;
2486;SDS011;1254;49.144;8.212;2024-01-10T04:53:43;26.48;;;15.65;;
2486;SDS011;1254;49.144;8.212;2024-01-10T04:56:12;28.45;;;17.63;;
2486;SDS011;1254;49.144;8.212;2024-01-10T04:58:40;24.05;;;16.00;;
2486;SDS011;1254;49.144;8.212;2024-01-10T05:01:09;23.33;;;17.13;;
2486;SDS011;1254;49.144;8.212;2024-01-10T05:03:37;24.38;;;16.80;;
2486;SDS011;1254;49.144;8.212;2024-01-10T05:06:05;26.08;;;16.30;;
2486;SDS011;1254;49.144;8.212;2024-01-10T05:08:33;21.00;;;16.83;;
2486;SDS011;1254;49.144;8.212;2024-01-10T05:11:01;24.13;;;18.65;;
2486;SDS011;1254;49.144;8.212;2024-01-10T05:13:29;27.52;;;17.65;;
2486;SDS011;1254;49.144;8.212;2024-01-10T05:15:58;29.85;;;17.10;;
2486;SDS011;1254;49.144;8.212;2024-01-10T05:18:27;34.47;;;17.45;;
2486;SDS011;1254;49.144;8.212;2024-01-10T05:20:55;23.70;;;16.20;;
2486;SDS011;1254;49.144;8.212;2024-01-10T05:23:23;24.50;;;15.52;;
2486;SDS011;1254;49.144;8.212;2024-01-10T05:25:52;23.13;;;16.58;;
2486;SDS011;1254;49.144;8.212;2024-01-10T05:28:20;33.83;;;19.20;;
2486;SDS011;1254;49.144;8.212;2024-01-10T05:30:48;25.83;;;16.05;;
2486;SDS011;1254;49.144;8.212;2024-01-10T05:33:16;27.63;;;17.52;;
2486;SDS011;1254;49.144;8.212;2024-01-10T05:35:46;25.23;;;17.88;;
2486;SDS011;1254;49.144;8.212;2024-01-10T05:38:15;24.08;;;15.30;;
2486;SDS011;1254;49.144;8.212;2024-01-10T05:40:43;28.50;;;17.95;;
2486;SDS011;1254;49.144;8.212;2024-01-10T05:43:11;39.88;;;18.42;;
2486;SDS011;1254;49.144;8.212;2024-01-10T05:45:39;20.95;;;15.35;;
2486;SDS011;1254;49.144;8.212;2024-01-10T05:48:07;21.98;;;14.48;;
2486;SDS011;1254;49.144;8.212;2024-01-10T05:50:35;26.05;;;15.50;;
2486;SDS011;1254;49.144;8.212;2024-01-10T05:53:06;20.92;;;14.70;;
2486;SDS011;1254;49.144;8.212;2024-01-10T05:55:34;24.33;;;14.18;;
2486;SDS011;1254;49.144;8.212;2024-01-10T05:58:03;29.80;;;17.95;;
2486;SDS011;1254;49.144;8.212;2024-01-10T06:00:31;33.08;;;17.45;;
2486;SDS011;1254;49.144;8.212;2024-01-10T06:02:59;28.75;;;16.02;;
2486;SDS011;1254;49.144;8.212;2024-01-10T06:05:27;22.55;;;15.52;;
2486;SDS011;1254;49.144;8.212;2024-01-10T06:07:57;25.50;;;17.05;;
2486;SDS011;1254;49.144;8.212;2024-01-10T06:10:27;23.10;;;14.88;;
2486;SDS011;1254;49.144;8.212;2024-01-10T06:12:58;24.52;;;16.10;;
2486;SDS011;1254;49.144;8.212;2024-01-10T06:15:26;31.33;;;17.50;;
2486;SDS011;1254;49.144;8.212;2024-01-10T06:17:54;24.40;;;15.63;;
2486;SDS011;1254;49.144;8.212;2024-01-10T06:20:22;26.45;;;17.77;;
2486;SDS011;1254;49.144;8.212;2024-01-10T06:22:51;23.55;;;18.13;;
2486;SDS011;1254;49.144;8.212;2024-01-10T06:25:19;22.95;;;16.20;;
2486;SDS011;1254;49.144;8.212;2024-01-10T06:27:48;27.25;;;17.75;;
2486;SDS011;1254;49.144;8.212;2024-01-10T06:30:17;26.83;;;17.02;;
2486;SDS011;1254;49.144;8.212;2024-01-10T06:32:45;26.05;;;17.85;;
2486;SDS011;1254;49.144;8.212;2024-01-10T06:35:13;27.55;;;16.92;;
2486;SDS011;1254;49.144;8.212;2024-01-10T06:37:41;27.73;;;16.30;;
2486;SDS011;1254;49.144;8.212;2024-01-10T06:40:11;29.20;;;16.42;;
2486;SDS011;1254;49.144;8.212;2024-01-10T06:42:39;28.20;;;18.63;;
2486;SDS011;1254;49.144;8.212;2024-01-10T06:45:09;32.05;;;17.15;;
2486;SDS011;1254;49.144;8.212;2024-01-10T06:47:38;26.63;;;16.75;;
2486;SDS011;1254;49.144;8.212;2024-01-10T06:50:06;30.45;;;17.85;;
2486;SDS011;1254;49.144;8.212;2024-01-10T06:52:35;32.60;;;17.67;;
2486;SDS011;1254;49.144;8.212;2024-01-10T06:55:03;24.75;;;16.08;;
2486;SDS011;1254;49.144;8.212;2024-01-10T06:57:32;26.05;;;16.63;;
2486;SDS011;1254;49.144;8.212;2024-01-10T07:00:00;29.30;;;19.48;;
2486;SDS011;1254;49.144;8.212;2024-01-10T07:02:33;30.40;;;19.58;;
2486;SDS011;1254;49.144;8.212;2024-01-10T07:05:02;22.38;;;16.67;;
2486;SDS011;1254;49.144;8.212;2024-01-10T07:07:32;25.10;;;17.48;;
2486;SDS011;1254;49.144;8.212;2024-01-10T07:10:01;26.65;;;17.15;;
2486;SDS011;1254;49.144;8.212;2024-01-10T07:12:30;20.95;;;13.65;;
2486;SDS011;1254;49.144;8.212;2024-01-10T07:14:59;24.10;;;16.92;;
2486;SDS011;1254;49.144;8.212;2024-01-10T07:17:29;28.52;;;15.20;;
2486;SDS011;1254;49.144;8.212;2024-01-10T07:19:58;29.20;;;19.02;;
2486;SDS011;1254;49.144;8.212;2024-01-10T07:22:27;29.33;;;17.65;;
2486;SDS011;1254;49.144;8.212;2024-01-10T07:24:55;33.25;;;17.25;;
2486;SDS011;1254;49.144;8.212;2024-01-10T07:27:24;24.95;;;17.00;;
2486;SDS011;1254;49.144;8.212;2024-01-10T07:29:52;33.30;;;18.20;;
2486;SDS011;1254;49.144;8.212;2024-01-10T07:32:20;35.67;;;19.80;;
2486;SDS011;1254;49.144;8.212;2024-01-10T07:34:48;28.85;;;17.73;;
2486;SDS011;1254;49.144;8.212;2024-01-10T07:37:18;30.80;;;18.75;;
2486;SDS011;1254;49.144;8.212;2024-01-10T07:39:48;30.40;;;19.20;;
2486;SDS011;1254;49.144;8.212;2024-01-10T07:42:17;24.75;;;18.38;;
2486;SDS011;1254;49.144;8.212;2024-01-10T07:44:45;32.63;;;19.58;;
2486;SDS011;1254;49.144;8.212;2024-01-10T07:47:13;33.95;;;19.73;;
2486;SDS011;1254;49.144;8.212;2024-01-10T07:49:42;29.00;;;18.67;;
2486;SDS011;1254;49.144;8.212;2024-01-10T07:52:10;25.77;;;18.38;;
2486;SDS011;1254;49.144;8.212;2024-01-10T07:54:40;30.42;;;18.27;;
2486;SDS011;1254;49.144;8.212;2024-01-10T07:57:08;26.85;;;20.10;;
2486;SDS011;1254;49.144;8.212;2024-01-10T07:59:37;35.25;;;20.40;;
2486;SDS011;1254;49.144;8.212;2024-01-10T08:02:05;30.30;;;18.95;;
2486;SDS011;1254;49.144;8.212;2024-01-10T08:04:33;33.70;;;19.77;;
2486;SDS011;1254;49.144;8.212;2024-01-10T08:07:02;26.13;;;19.05;;
2486;SDS011;1254;49.144;8.212;2024-01-10T08:09:30;29.85;;;18.15;;
2486;SDS011;1254;49.144;8.212;2024-01-10T08:11:59;29.10;;;19.00;;
2486;SDS011;1254;49.144;8.212;2024-01-10T08:14:28;29.58;;;19.90;;
2486;SDS011;1254;49.144;8.212;2024-01-10T08:16:56;28.60;;;18.52;;
2486;SDS011;1254;49.144;8.212;2024-01-10T08:19:24;25.55;;;19.50;;
2486;SDS011;1254;49.144;8.212;2024-01-10T08:21:53;29.58;;;19.90;;
2486;SDS011;1254;49.144;8.212;2024-01-10T08:24:21;28.70;;;19.67;;
2486;SDS011;1254;49.144;8.212;2024-01-10T08:26:49;29.60;;;19.48;;
2486;SDS011;1254;49.144;8.212;2024-01-10T08:29:19;29.20;;;18.50;;
2486;SDS011;1254;49.144;8.212;2024-01-10T08:31:47;28.60;;;18.90;;
2486;SDS011;1254;49.144;8.212;2024-01-10T08:34:16;31.92;;;21.30;;
2486;SDS011;1254;49.144;8.212;2024-01-10T08:36:44;33.00;;;21.58;;
2486;SDS011;1254;49.144;8.212;2024-01-10T08:39:16;37.15;;;21.10;;
2486;SDS011;1254;49.144;8.212;2024-01-10T08:41:45;31.80;;;19.35;;
2486;SDS011;1254;49.144;8.212;2024-01-10T08:44:13;28.77;;;20.98;;
2486;SDS011;1254;49.144;8.212;2024-01-10T08:46:43;32.45;;;21.33;;
2486;SDS011;1254;49.144;8.212;2024-01-10T08:49:11;39.83;;;25.60;;
2486;SDS011;1254;49.144;8.212;2024-01-10T08:51:39;37.70;;;23.50;;
2486;SDS011;1254;49.144;8.212;2024-01-10T08:54:09;31.75;;;22.13;;
2486;SDS011;1254;49.144;8.212;2024-01-10T08:56:38;37.20;;;23.30;;
2486;SDS011;1254;49.144;8.212;2024-01-10T08:59:07;39.08;;;20.20;;
2486;SDS011;1254;49.144;8.212;2024-01-10T09:01:35;30.60;;;20.48;;
2486;SDS011;1254;49.144;8.212;2024-01-10T09:04:06;32.45;;;20.38;;
2486;SDS011;1254;49.144;8.212;2024-01-10T09:06:34;33.08;;;20.23;;
2486;SDS011;1254;49.144;8.212;2024-01-10T09:09:02;30.77;;;19.92;;
2486;SDS011;1254;49.144;8.212;2024-01-10T09:11:31;33.25;;;21.00;;
2486;SDS011;1254;49.144;8.212;2024-01-10T09:13:59;33.08;;;21.95;;
2486;SDS011;1254;49.144;8.212;2024-01-10T09:16:27;33.85;;;20.60;;
2486;SDS011;1254;49.144;8.212;2024-01-10T09:18:55;29.25;;;19.77;;
2486;SDS011;1254;49.144;8.212;2024-01-10T09:21:25;35.03;;;20.25;;
2486;SDS011;1254;49.144;8.212;2024-01-10T09:23:53;31.00;;;21.60;;
2486;SDS011;1254;49.144;8.212;2024-01-10T09:26:22;29.05;;;20.70;;
2486;SDS011;1254;49.144;8.212;2024-01-10T09:28:51;28.38;;;22.35;;
2486;SDS011;1254;49.144;8.212;2024-01-10T09:31:19;27.17;;;20.67;;
2486;SDS011;1254;49.144;8.212;2024-01-10T09:33:47;29.48;;;20.17;;
2486;SDS011;1254;49.144;8.212;2024-01-10T09:36:15;34.63;;;22.58;;
2486;SDS011;1254;49.144;8.212;2024-01-10T09:38:45;29.35;;;22.80;;
2486;SDS011;1254;49.144;8.212;2024-01-10T09:41:13;35.20;;;23.23;;
2486;SDS011;1254;49.144;8.212;2024-01-10T09:43:43;30.45;;;22.83;;
2486;SDS011;1254;49.144;8.212;2024-01-10T09:46:11;33.47;;;20.73;;
2486;SDS011;1254;49.144;8.212;2024-01-10T09:48:39;29.98;;;20.27;;
2486;SDS011;1254;49.144;8.212;2024-01-10T09:51:08;26.33;;;20.23;;
2486;SDS011;1254;49.144;8.212;2024-01-10T09:53:36;27.05;;;20.10;;
2486;SDS011;1254;49.144;8.212;2024-01-10T09:56:08;23.70;;;20.65;;
2486;SDS011;1254;49.144;8.212;2024-01-10T09:58:36;28.30;;;21.00;;
2486;SDS011;1254;49.144;8.212;2024-01-10T10:01:06;39.33;;;19.67;;
2486;SDS011;1254;49.144;8.212;2024-01-10T10:03:36;25.00;;;21.10;;
2486;SDS011;1254;49.144;8.212;2024-01-10T10:06:08;30.83;;;20.85;;
2486;SDS011;1254;49.144;8.212;2024-01-10T10:08:36;33.63;;;22.38;;
2486;SDS011;1254;49.144;8.212;2024-01-10T10:11:08;31.52;;;21.55;;
2486;SDS011;1254;49.144;8.212;2024-01-10T10:13:39;27.65;;;23.15;;
2486;SDS011;1254;49.144;8.212;2024-01-10T10:16:08;32.38;;;21.35;;
2486;SDS011;1254;49.144;8.212;2024-01-10T10:18:39;28.95;;;21.67;;
2486;SDS011;1254;49.144;8.212;2024-01-10T10:21:09;27.55;;;21.65;;
2486;SDS011;1254;49.144;8.212;2024-01-10T10:23:38;25.65;;;21.38;;
2486;SDS011;1254;49.144;8.212;2024-01-10T10:26:11;25.73;;;22.02;;
2486;SDS011;1254;49.144;8.212;2024-01-10T10:28:45;26.15;;;21.52;;
2486;SDS011;1254;49.144;8.212;2024-01-10T10:31:13;27.13;;;22.48;;
2486;SDS011;1254;49.144;8.212;2024-01-10T10:33:42;25.98;;;20.02;;
2486;SDS011;1254;49.144;8.212;2024-01-10T10:36:10;32.03;;;24.35;;
2486;SDS011;1254;49.144;8.212;2024-01-10T10:38:38;27.48;;;22.52;;
2486;SDS011;1254;49.144;8.212;2024-01-10T10:41:07;29.90;;;21.73;;
2486;SDS011;1254;49.144;8.212;2024-01-10T10:43:38;24.10;;;19.55;;
2486;SDS011;1254;49.144;8.212;2024-01-10T10:46:07;25.33;;;21.40;;
2486;SDS011;1254;49.144;8.212;2024-01-10T10:48:35;27.75;;;22.35;;
2486;SDS011;1254;49.144;8.212;2024-01-10T10:51:04;29.23;;;23.88;;
2486;SDS011;1254;49.144;8.212;2024-01-10T10:53:34;33.05;;;24.38;;
2486;SDS011;1254;49.144;8.212;2024-01-10T10:56:03;33.47;;;23.17;;
2486;SDS011;1254;49.144;8.212;2024-01-10T10:58:32;35.65;;;25.00;;
2486;SDS011;1254;49.144;8.212;2024-01-10T11:01:04;28.67;;;23.15;;
2486;SDS011;1254;49.144;8.212;2024-01-10T11:03:33;29.70;;;24.15;;
2486;SDS011;1254;49.144;8.212;2024-01-10T11:06:03;31.77;;;23.33;;
2486;SDS011;1254;49.144;8.212;2024-01-10T11:08:33;31.45;;;24.65;;
2486;SDS011;1254;49.144;8.212;2024-01-10T11:11:02;31.60;;;24.08;;
2486;SDS011;1254;49.144;8.212;2024-01-10T11:13:37;31.25;;;25.17;;
2486;SDS011;1254;49.144;8.212;2024-01-10T11:19:08;29.73;;;24.02;;
2486;SDS011;1254;49.144;8.212;2024-01-10T11:21:42;27.33;;;24.73;;
2486;SDS011;1254;49.144;8.212;2024-01-10T11:24:15;27.17;;;24.38;;
2486;SDS011;1254;49.144;8.212;2024-01-10T11:26:44;30.25;;;23.35;;
2486;SDS011;1254;49.144;8.212;2024-01-10T11:29:15;30.67;;;24.35;;
2486;SDS011;1254;49.144;8.212;2024-01-10T11:31:43;26.73;;;24.13;;
2486;SDS011;1254;49.144;8.212;2024-01-10T11:34:22;28.02;;;24.02;;
2486;SDS011;1254;49.144;8.212;2024-01-10T11:39:35;25.70;;;23.25;;
2486;SDS011;1254;49.144;8.212;2024-01-10T11:42:03;27.45;;;24.85;;
2486;SDS011;1254;49.144;8.212;2024-01-10T11:44:34;27.48;;;24.83;;
2486;SDS011;1254;49.144;8.212;2024-01-10T11:47:03;28.05;;;25.02;;
2486;SDS011;1254;49.144;8.212;2024-01-10T11:49:33;28.77;;;25.88;;
2486;SDS011;1254;49.144;8.212;2024-01-10T11:52:01;27.70;;;24.90;;
2486;SDS011;1254;49.144;8.212;2024-01-10T11:54:36;32.17;;;26.80;;
2486;SDS011;1254;49.144;8.212;2024-01-10T11:57:07;33.22;;;27.00;;
2486;SDS011;1254;49.144;8.212;2024-01-10T11:59:35;28.60;;;25.63;;
2486;SDS011;1254;49.144;8.212;2024-01-10T12:02:04;30.52;;;26.00;;
2486;SDS011;1254;49.144;8.212;2024-01-10T12:04:34;31.65;;;27.20;;
2486;SDS011;1254;49.144;8.212;2024-01-10T12:07:02;28.40;;;25.38;;
2486;SDS011;1254;49.144;8.212;2024-01-10T12:09:32;28.52;;;25.65;;
2486;SDS011;1254;49.144;8.212;2024-01-10T12:12:00;27.48;;;24.67;;
2486;SDS011;1254;49.144;8.212;2024-01-10T12:14:28;29.13;;;25.10;;
2486;SDS011;1254;49.144;8.212;2024-01-10T12:16:57;29.70;;;26.70;;
2486;SDS011;1254;49.144;8.212;2024-01-10T12:19:25;27.77;;;24.88;;
2486;SDS011;1254;49.144;8.212;2024-01-10T12:21:55;31.67;;;25.80;;
2486;SDS011;1254;49.144;8.212;2024-01-10T12:24:23;30.35;;;27.27;;
2486;SDS011;1254;49.144;8.212;2024-01-10T12:26:51;31.05;;;25.17;;
2486;SDS011;1254;49.144;8.212;2024-01-10T12:29:20;30.15;;;27.15;;
2486;SDS011;1254;49.144;8.212;2024-01-10T12:31:48;28.60;;;25.85;;
2486;SDS011;1254;49.144;8.212;2024-01-10T12:34:17;34.67;;;28.10;;
2486;SDS011;1254;49.144;8.212;2024-01-10T12:36:45;27.48;;;25.05;;
2486;SDS011;1254;49.144;8.212;2024-01-10T12:39:15;28.77;;;25.30;;
2486;SDS011;1254;49.144;8.212;2024-01-10T12:41:43;29.17;;;26.27;;
2486;SDS011;1254;49.144;8.212;2024-01-10T12:44:11;27.63;;;24.73;;
2486;SDS011;1254;49.144;8.212;2024-01-10T12:46:49;30.55;;;27.65;;
2486;SDS011;1254;49.144;8.212;2024-01-10T12:49:18;30.60;;;27.30;;
2486;SDS011;1254;49.144;8.212;2024-01-10T12:51:47;30.80;;;27.50;;
2486;SDS011;1254;49.144;8.212;2024-01-10T12:54:17;28.17;;;25.17;;
2486;SDS011;1254;49.144;8.212;2024-01-10T12:56:45;29.02;;;26.13;;
2486;SDS011;1254;49.144;8.212;2024-01-10T12:59:13;28.30;;;25.50;;
2486;SDS011;1254;49.144;8.212;2024-01-10T13:01:41;29.55;;;25.75;;
2486;SDS011;1254;49.144;8.212;2024-01-10T13:04:10;27.65;;;25.05;;
2486;SDS011;1254;49.144;8.212;2024-01-10T13:06:38;29.15;;;26.00;;
2486;SDS011;1254;49.144;8.212;2024-01-10T13:09:07;27.48;;;24.77;;
2486;SDS011;1254;49.144;8.212;2024-01-10T13:11:37;28.10;;;25.30;;
2486;SDS011;1254;49.144;8.212;2024-01-10T13:14:05;28.42;;;25.50;;
2486;SDS011;1254;49.144;8.212;2024-01-10T13:16:33;28.50;;;25.70;;
2486;SDS011;1254;49.144;8.212;2024-01-10T13:19:01;30.73;;;27.58;;
2486;SDS011;1254;49.144;8.212;2024-01-10T13:21:29;29.48;;;25.73;;
2486;SDS011;1254;49.144;8.212;2024-01-10T13:23:57;31.35;;;27.98;;
2486;SDS011;1254;49.144;8.212;2024-01-10T13:26:26;31.13;;;27.52;;
2486;SDS011;1254;49.144;8.212;2024-01-10T13:28:55;29.30;;;25.90;;
2486;SDS011;1254;49.144;8.212;2024-01-10T13:31:23;30.02;;;26.90;;
2486;SDS011;1254;49.144;8.212;2024-01-10T13:33:52;31.35;;;27.98;;
2486;SDS011;1254;49.144;8.212;2024-01-10T13:36:20;29.88;;;26.65;;
2486;SDS011;1254;49.144;8.212;2024-01-10T13:38:48;31.80;;;28.27;;
2486;SDS011;1254;49.144;8.212;2024-01-10T13:41:16;29.25;;;26.25;;
2486;SDS011;1254;49.144;8.212;2024-01-10T13:43:45;28.48;;;25.60;;
2486;SDS011;1254;49.144;8.212;2024-01-10T13:46:14;27.60;;;24.73;;
2486;SDS011;1254;49.144;8.212;2024-01-10T13:48:43;34.67;;;27.95;;
2486;SDS011;1254;49.144;8.212;2024-01-10T13:51:11;34.70;;;27.50;;
2486;SDS011;1254;49.144;8.212;2024-01-10T13:53:39;29.95;;;26.00;;
2486;SDS011;1254;49.144;8.212;2024-01-10T13:56:07;31.52;;;26.20;;
2486;SDS011;1254;49.144;8.212;2024-01-10T13:58:37;36.22;;;28.90;;
2486;SDS011;1254;49.144;8.212;2024-01-10T14:01:06;28.90;;;25.23;;
2486;SDS011;1254;49.144;8.212;2024-01-10T14:03:35;33.45;;;26.65;;
2486;SDS011;1254;49.144;8.212;2024-01-10T14:06:04;28.95;;;25.83;;
2486;SDS011;1254;49.144;8.212;2024-01-10T14:08:32;32.42;;;25.55;;
2486;SDS011;1254;49.144;8.212;2024-01-10T14:11:03;32.63;;;26.45;;
2486;SDS011;1254;49.144;8.212;2024-01-10T14:13:32;31.23;;;25.67;;
2486;SDS011;1254;49.144;8.212;2024-01-10T14:16:01;35.75;;;25.25;;
2486;SDS011;1254;49.144;8.212;2024-01-10T14:18:29;27.77;;;24.85;;
2486;SDS011;1254;49.144;8.212;2024-01-10T14:20:59;31.52;;;26.80;;
2486;SDS011;1254;49.144;8.212;2024-01-10T14:23:27;32.60;;;25.27;;
2486;SDS011;1254;49.144;8.212;2024-01-10T14:25:55;27.05;;;24.35;;
2486;SDS011;1254;49.144;8.212;2024-01-10T14:28:24;29.92;;;24.50;;
2486;SDS011;1254;49.144;8.212;2024-01-10T14:30:52;26.77;;;23.88;;
2486;SDS011;1254;49.144;8.212;2024-01-10T14:33:20;27.30;;;24.42;;
2486;SDS011;1254;49.144;8.212;2024-01-10T14:35:48;30.52;;;25.25;;
2486;SDS011;1254;49.144;8.212;2024-01-10T14:38:18;27.35;;;24.60;;
2486;SDS011;1254;49.144;8.212;2024-01-10T14:40:47;29.40;;;25.92;;
2486;SDS011;1254;49.144;8.212;2024-01-10T14:43:17;30.10;;;26.00;;
2486;SDS011;1254;49.144;8.212;2024-01-10T14:45:46;31.30;;;27.20;;
2486;SDS011;1254;49.144;8.212;2024-01-10T14:48:14;32.90;;;28.02;;
2486;SDS011;1254;49.144;8.212;2024-01-10T14:50:42;29.88;;;26.52;;
2486;SDS011;1254;49.144;8.212;2024-01-10T14:53:11;32.70;;;27.48;;
2486;SDS011;1254;49.144;8.212;2024-01-10T14:55:40;30.58;;;25.73;;
2486;SDS011;1254;49.144;8.212;2024-01-10T14:58:09;30.13;;;26.52;;
2486;SDS011;1254;49.144;8.212;2024-01-10T15:00:37;31.17;;;27.15;;
2486;SDS011;1254;49.144;8.212;2024-01-10T15:03:07;35.78;;;28.83;;